Time;durP1;ratioP1;P1;durP2;ratioP2;P2;SDS_P1;SDS_P2;PMS_P1;PMS_P2;Temp;Humidity;BMP_temperature;BMP_pressure;BME280_temperature;BME280_humidity;BME280_pressure;Samples;Min_cycle;Max_cycle;Signal;HPM_P1;HPM_P2
2021/06/15 00:00:19;;;;;;;5.40;4.40;;;19.60;99.90;;;;;;5093578;28;20561;-75
2021/06/15 00:02:45;;;;;;;3.63;3.33;;;19.80;99.90;;;;;;5093428;28;20220;-75
2021/06/15 00:05:12;;;;;;;5.83;4.73;;;19.70;99.90;;;;;;5093591;28;20465;-76
2021/06/15 00:07:38;;;;;;;5.20;4.33;;;19.60;99.90;;;;;;5093563;28;20170;-76
2021/06/15 00:10:11;;;;;;;6.27;4.30;;;19.50;99.90;;;;;;5093659;28;20429;-76
2021/06/15 00:12:38;;;;;;;6.47;4.00;;;19.50;99.90;;;;;;5093309;28;20493;-76
2021/06/15 00:15:05;;;;;;;7.10;4.27;;;19.50;99.90;;;;;;5093457;28;20455;-76
2021/06/15 00:17:31;;;;;;;5.03;3.70;;;19.40;99.90;;;;;;5093738;28;21161;-76
2021/06/15 00:19:56;;;;;;;5.13;3.60;;;19.40;99.90;;;;;;5093460;28;20415;-76
2021/06/15 00:22:21;;;;;;;7.60;4.03;;;19.40;99.90;;;;;;5075156;28;20173;-76
2021/06/15 00:24:47;;;;;;;7.07;4.80;;;19.40;99.90;;;;;;5092865;28;20284;-74
2021/06/15 00:27:12;;;;;;;4.23;3.83;;;19.50;99.90;;;;;;5092863;28;20227;-76
2021/06/15 00:29:38;;;;;;;7.37;4.43;;;19.40;99.90;;;;;;5074638;28;20186;-76
2021/06/15 00:32:04;;;;;;;4.40;3.90;;;19.40;99.90;;;;;;5092680;28;20200;-76
2021/06/15 00:34:29;;;;;;;6.13;4.20;;;19.30;99.90;;;;;;5091903;28;20640;-74
2021/06/15 00:36:55;;;;;;;7.90;4.20;;;19.20;99.90;;;;;;5092681;28;20172;-75
2021/06/15 00:39:20;;;;;;;3.63;3.33;;;19.20;99.90;;;;;;5092989;28;20176;-77
2021/06/15 00:41:46;;;;;;;7.83;5.10;;;19.20;99.90;;;;;;5093230;28;20216;-74
2021/06/15 00:44:12;;;;;;;5.97;4.70;;;19.10;99.90;;;;;;5093000;28;20185;-74
2021/06/15 00:46:38;;;;;;;4.50;3.90;;;19.20;99.90;;;;;;5092597;28;20170;-75
2021/06/15 00:49:04;;;;;;;7.83;4.30;;;19.20;99.90;;;;;;5092476;28;20479;-74
2021/06/15 00:51:29;;;;;;;6.00;4.70;;;19.20;99.90;;;;;;5092253;28;20427;-75
2021/06/15 00:53:55;;;;;;;6.13;4.40;;;19.10;99.90;;;;;;5092643;28;20405;-75
2021/06/15 00:56:20;;;;;;;4.83;4.20;;;19.20;99.90;;;;;;5091980;28;20204;-74
2021/06/15 00:58:47;;;;;;;4.83;3.83;;;19.40;99.90;;;;;;5092292;28;20684;-74
2021/06/15 01:01:13;;;;;;;6.47;4.10;;;19.30;99.90;;;;;;5092309;28;20223;-75
2021/06/15 01:03:38;;;;;;;5.53;3.77;;;19.20;99.90;;;;;;5092474;28;20410;-74
2021/06/15 01:06:12;;;;;;;5.30;4.17;;;19.20;99.90;;;;;;5092628;28;20639;-75
2021/06/15 01:08:56;;;;;;;5.83;4.13;;;19.10;99.90;;;;;;5074618;28;20225;-75
2021/06/15 01:11:33;;;;;;;7.73;3.97;;;19.00;99.90;;;;;;5094807;28;20481;-76
2021/06/15 01:14:27;;;;;;;6.17;4.70;;;19.10;99.90;;;;;;5093465;28;20445;-73
2021/06/15 01:16:57;;;;;;;6.10;3.83;;;19.10;99.90;;;;;;5094903;28;20449;-74
2021/06/15 01:19:26;;;;;;;4.90;4.17;;;19.10;99.90;;;;;;5092868;28;20402;-76
2021/06/15 01:22:04;;;;;;;5.63;4.77;;;19.10;99.90;;;;;;5091825;28;20800;-74
2021/06/15 01:24:42;;;;;;;7.30;4.13;;;19.00;99.90;;;;;;5091960;28;20394;-76
2021/06/15 01:27:35;;;;;;;4.83;4.30;;;19.00;99.90;;;;;;5092042;28;20394;-73
2021/06/15 01:30:05;;;;;;;4.83;3.90;;;19.00;99.90;;;;;;5091588;28;20816;-73
2021/06/15 01:32:32;;;;;;;6.07;4.30;;;18.80;99.90;;;;;;5091507;28;20463;-73
2021/06/15 01:34:58;;;;;;;4.53;4.00;;;19.00;99.90;;;;;;5091429;28;20450;-74
2021/06/15 01:37:32;;;;;;;8.57;4.20;;;19.00;99.90;;;;;;5092063;28;20752;-74
2021/06/15 01:40:13;;;;;;;6.83;3.97;;;18.90;99.90;;;;;;5092061;28;20406;-74
2021/06/15 01:42:54;;;;;;;5.27;4.20;;;18.90;99.90;;;;;;5091909;28;20550;-75
2021/06/15 01:45:31;;;;;;;3.73;3.43;;;18.90;99.90;;;;;;5096677;28;20406;-74
2021/06/15 01:48:28;;;;;;;9.10;4.70;;;18.90;99.90;;;;;;5100423;28;20403;-75
2021/06/15 01:50:55;;;;;;;4.60;4.00;;;18.90;99.90;;;;;;5099881;28;20844;-75
2021/06/15 01:53:22;;;;;;;4.27;3.83;;;18.90;99.90;;;;;;5092200;28;20507;-76
2021/06/15 01:55:53;;;;;;;6.10;4.80;;;18.80;99.90;;;;;;5091966;28;20815;-74
2021/06/15 01:58:22;;;;;;;4.30;3.50;;;18.80;99.90;;;;;;5092689;28;20394;-75
2021/06/15 02:00:49;;;;;;;5.93;3.60;;;18.70;99.90;;;;;;5092835;28;20507;-74
2021/06/15 02:03:14;;;;;;;5.07;4.30;;;18.70;99.90;;;;;;5074413;28;20764;-75
2021/06/15 02:05:54;;;;;;;4.23;3.83;;;18.70;99.90;;;;;;5092294;28;20458;-75
2021/06/15 02:08:27;;;;;;;4.37;3.97;;;18.70;99.90;;;;;;5092226;28;20670;-75
2021/06/15 02:10:55;;;;;;;6.60;4.20;;;18.70;99.90;;;;;;5091771;28;20445;-75
2021/06/15 02:13:21;;;;;;;4.63;3.80;;;18.70;99.90;;;;;;5091363;28;20495;-75
2021/06/15 02:15:48;;;;;;;6.80;4.20;;;18.60;99.90;;;;;;5091108;28;20997;-75
2021/06/15 02:18:18;;;;;;;4.77;3.90;;;18.50;99.90;;;;;;5091164;28;20449;-75
2021/06/15 02:20:44;;;;;;;7.10;3.73;;;18.50;99.90;;;;;;5091068;28;20429;-75
2021/06/15 02:23:19;;;;;;;5.40;3.97;;;18.50;99.90;;;;;;5091235;28;20411;-75
2021/06/15 02:25:45;;;;;;;5.70;4.30;;;18.60;99.90;;;;;;5091410;28;20173;-74
2021/06/15 02:28:12;;;;;;;6.07;4.50;;;18.50;99.90;;;;;;5090976;28;20418;-75
2021/06/15 02:30:37;;;;;;;4.03;3.63;;;18.40;99.90;;;;;;5072783;28;20259;-74
2021/06/15 02:33:10;;;;;;;8.30;4.80;;;18.50;99.90;;;;;;5091085;28;20413;-75
2021/06/15 02:35:41;;;;;;;6.47;4.33;;;18.40;99.90;;;;;;5090948;28;20322;-75
2021/06/15 02:38:13;;;;;;;4.30;3.90;;;18.50;99.90;;;;;;5091076;28;20544;-75
2021/06/15 02:40:40;;;;;;;7.00;5.00;;;18.50;99.90;;;;;;5091038;28;20544;-75
2021/06/15 02:43:07;;;;;;;5.53;4.07;;;18.60;99.90;;;;;;5091064;28;20772;-75
2021/06/15 02:45:34;;;;;;;5.07;3.97;;;18.50;99.90;;;;;;5091166;28;21008;-75
2021/06/15 02:48:03;;;;;;;5.30;4.30;;;18.50;99.90;;;;;;5090652;28;20963;-75
2021/06/15 02:50:30;;;;;;;5.60;4.47;;;18.40;99.90;;;;;;5090574;28;20426;-75
2021/06/15 02:53:07;;;;;;;5.83;4.57;;;18.30;99.90;;;;;;5090600;28;20439;-75
2021/06/15 02:55:36;;;;;;;4.50;4.10;;;18.50;99.90;;;;;;5090694;28;20450;-75
2021/06/15 02:58:03;;;;;;;5.63;5.07;;;18.50;99.90;;;;;;5091364;28;20835;-74
2021/06/15 03:00:29;;;;;;;4.80;4.23;;;18.60;99.90;;;;;;5094747;28;20453;-76
2021/06/15 03:02:54;;;;;;;6.13;5.53;;;18.60;99.90;;;;;;5094225;28;20443;-75
2021/06/15 03:05:20;;;;;;;4.80;4.23;;;18.50;99.90;;;;;;5094234;28;20225;-75
2021/06/15 03:07:47;;;;;;;5.40;4.50;;;18.40;99.90;;;;;;5094173;28;20184;-74
2021/06/15 03:10:13;;;;;;;7.17;5.40;;;18.30;99.90;;;;;;5094100;28;20169;-75
2021/06/15 03:13:03;;;;;;;5.23;4.60;;;18.40;99.90;;;;;;5075914;28;20453;-75
2021/06/15 03:16:04;;;;;;;4.30;3.90;;;18.50;99.90;;;;;;5094036;28;20485;-75
2021/06/15 03:18:57;;;;;;;7.13;6.50;;;18.50;99.90;;;;;;5072172;28;20780;-75
2021/06/15 03:21:24;;;;;;;7.17;5.47;;;18.50;99.90;;;;;;5094226;28;20480;-75
2021/06/15 03:23:58;;;;;;;8.10;5.97;;;18.50;99.90;;;;;;5094498;28;20459;-75
2021/06/15 03:26:45;;;;;;;7.77;6.60;;;18.50;99.90;;;;;;5094693;28;20406;-76
2021/06/15 03:29:18;;;;;;;10.00;8.60;;;18.50;99.90;;;;;;5094730;28;20405;-75
2021/06/15 03:31:45;;;;;;;11.80;9.90;;;18.50;99.90;;;;;;5093712;28;20457;-75
2021/06/15 03:34:14;;;;;;;11.23;8.00;;;18.70;99.90;;;;;;5093906;28;20490;-75
2021/06/15 03:36:42;;;;;;;10.17;9.07;;;18.70;99.90;;;;;;5093466;28;20507;-75
2021/06/15 03:39:09;;;;;;;10.43;8.67;;;18.60;99.90;;;;;;5094222;28;20440;-75
2021/06/15 03:41:36;;;;;;;7.70;6.50;;;18.70;99.90;;;;;;5093632;28;20527;-75
2021/06/15 03:44:03;;;;;;;7.90;5.63;;;18.70;99.90;;;;;;5093671;28;20440;-75
2021/06/15 03:46:32;;;;;;;6.17;5.20;;;18.80;99.90;;;;;;5093605;28;20475;-74
2021/06/15 03:49:00;;;;;;;7.53;6.00;;;18.90;99.90;;;;;;5093540;28;20415;-74
2021/06/15 03:51:35;;;;;;;8.43;4.70;;;19.00;99.90;;;;;;5094352;28;20462;-75
2021/06/15 03:54:09;;;;;;;6.50;5.03;;;19.00;99.90;;;;;;5094053;28;20512;-75
2021/06/15 03:56:40;;;;;;;7.63;5.17;;;19.10;99.90;;;;;;5093958;28;20845;-75
2021/06/15 03:59:07;;;;;;;5.30;4.80;;;19.20;99.90;;;;;;5094101;28;20399;-74
2021/06/15 04:01:39;;;;;;;4.57;4.17;;;19.10;99.90;;;;;;5093966;28;20430;-75
2021/06/15 04:04:07;;;;;;;5.80;4.87;;;19.10;99.90;;;;;;5094262;28;20914;-75
2021/06/15 04:06:35;;;;;;;8.27;5.00;;;19.10;99.90;;;;;;5093981;28;20435;-75
2021/06/15 04:09:04;;;;;;;5.83;4.53;;;19.10;99.90;;;;;;5093703;28;20821;-75
2021/06/15 04:11:34;;;;;;;4.17;3.77;;;19.20;99.90;;;;;;5093894;28;20927;-75
2021/06/15 04:14:01;;;;;;;4.70;4.30;;;19.30;99.90;;;;;;5093701;28;20844;-75
2021/06/15 04:16:27;;;;;;;6.90;4.60;;;19.20;99.90;;;;;;5094041;28;20462;-75
2021/06/15 04:18:55;;;;;;;7.10;4.27;;;19.30;99.90;;;;;;5093557;28;20901;-75
2021/06/15 04:21:20;;;;;;;12.23;4.37;;;19.40;99.90;;;;;;5093621;28;20296;-75
2021/06/15 04:23:53;;;;;;;5.57;4.20;;;19.60;99.90;;;;;;5092754;28;20443;-75
2021/06/15 04:26:19;;;;;;;4.80;4.13;;;19.90;99.90;;;;;;5092656;28;20209;-75
2021/06/15 04:28:45;;;;;;;5.00;4.47;;;20.00;99.90;;;;;;5092701;28;20445;-76
2021/06/15 04:31:13;;;;;;;6.30;3.73;;;20.00;99.90;;;;;;5092542;28;20186;-75
2021/06/15 04:33:45;;;;;;;7.37;4.60;;;20.00;99.90;;;;;;5092786;28;20535;-76
2021/06/15 04:36:11;;;;;;;4.77;4.27;;;20.00;99.90;;;;;;5092364;28;20454;-75
2021/06/15 04:38:47;;;;;;;5.13;4.40;;;20.40;99.90;;;;;;5093499;28;20415;-75
2021/06/15 04:41:23;;;;;;;8.40;4.30;;;20.60;99.90;;;;;;5092613;28;20522;-76
2021/06/15 04:43:54;;;;;;;3.97;3.63;;;20.60;99.90;;;;;;5092376;28;20403;-75
2021/06/15 04:46:25;;;;;;;3.57;3.27;;;20.70;99.90;;;;;;5092308;28;20408;-76
2021/06/15 04:49:00;;;;;;;7.07;4.70;;;20.80;99.90;;;;;;5092295;28;20485;-76
2021/06/15 04:51:26;;;;;;;4.40;3.90;;;20.70;99.90;;;;;;5092123;28;20949;-76
2021/06/15 04:53:58;;;;;;;7.00;4.60;;;20.80;99.90;;;;;;5092161;28;20911;-76
2021/06/15 04:56:24;;;;;;;5.33;4.40;;;20.90;99.90;;;;;;5092147;28;20488;-75
2021/06/15 04:58:53;;;;;;;5.07;4.57;;;21.20;99.90;;;;;;5092190;28;20445;-75
2021/06/15 05:01:18;;;;;;;8.37;4.90;;;21.60;99.90;;;;;;5091901;28;20491;-75
2021/06/15 05:03:44;;;;;;;5.10;4.47;;;21.80;99.90;;;;;;5092058;28;20403;-75
2021/06/15 05:06:10;;;;;;;5.47;4.97;;;22.10;99.90;;;;;;5091987;28;20275;-74
2021/06/15 05:08:45;;;;;;;5.30;4.80;;;22.00;99.90;;;;;;5091929;28;20167;-74
2021/06/15 05:11:11;;;;;;;6.37;5.00;;;22.20;99.90;;;;;;5091865;28;20428;-75
2021/06/15 05:13:40;;;;;;;6.00;5.03;;;21.80;99.90;;;;;;5091817;28;20409;-75
2021/06/15 05:16:08;;;;;;;6.27;4.77;;;22.10;99.90;;;;;;5091612;28;20462;-75
2021/06/15 05:18:35;;;;;;;6.23;4.50;;;22.50;99.90;;;;;;5091855;28;20448;-75
2021/06/15 05:21:06;;;;;;;6.40;4.50;;;22.30;99.90;;;;;;5091381;28;20423;-74
2021/06/15 05:23:39;;;;;;;7.60;5.27;;;22.70;99.90;;;;;;5091864;28;20405;-74
2021/06/15 05:26:05;;;;;;;11.87;4.50;;;22.80;99.90;;;;;;5091697;28;20441;-75
2021/06/15 05:28:30;;;;;;;6.13;4.70;;;22.70;99.90;;;;;;5073605;28;20440;-74
2021/06/15 05:30:55;;;;;;;6.73;5.60;;;22.90;99.90;;;;;;5092016;28;20675;-73
2021/06/15 05:33:21;;;;;;;5.70;4.77;;;22.50;99.90;;;;;;5092169;28;20175;-74
2021/06/15 05:35:46;;;;;;;6.73;4.17;;;22.20;99.90;;;;;;5092408;28;20203;-75
2021/06/15 05:38:14;;;;;;;9.73;5.20;;;22.60;99.90;;;;;;5092784;28;20653;-76
2021/06/15 05:40:40;;;;;;;6.33;5.20;;;22.30;99.90;;;;;;5092378;28;20288;-73
2021/06/15 05:43:05;;;;;;;5.80;4.67;;;22.70;99.90;;;;;;5092325;28;20409;-74
2021/06/15 05:45:31;;;;;;;4.73;4.00;;;22.70;99.90;;;;;;5091709;28;20190;-76
2021/06/15 05:47:56;;;;;;;6.83;4.83;;;22.60;99.90;;;;;;5091873;28;20648;-74
2021/06/15 05:50:22;;;;;;;9.00;5.00;;;23.00;99.90;;;;;;5091679;28;20197;-75
2021/06/15 05:52:48;;;;;;;4.80;4.40;;;22.80;99.90;;;;;;5091821;28;20176;-75
2021/06/15 05:55:14;;;;;;;6.03;4.90;;;22.60;99.90;;;;;;5091773;28;20208;-75
2021/06/15 05:57:40;;;;;;;8.20;4.90;;;22.60;99.90;;;;;;5094905;28;20882;-76
2021/06/15 06:00:08;;;;;;;7.40;5.37;;;22.50;99.90;;;;;;5094110;28;20403;-75
2021/06/15 06:02:33;;;;;;;7.97;5.23;;;22.20;99.90;;;;;;5093546;28;20182;-74
2021/06/15 06:10:10;;;;;;;6.17;5.20;;;22.70;99.90;;;;;;5091424;28;20244;-75
2021/06/15 06:12:35;;;;;;;5.60;4.53;;;22.60;99.90;;;;;;5091390;28;20401;-75
2021/06/15 06:15:02;;;;;;;7.57;5.10;;;23.10;99.90;;;;;;5091547;28;20865;-75
2021/06/15 06:17:28;;;;;;;7.13;4.87;;;23.10;99.90;;;;;;5091350;28;20163;-75
2021/06/15 06:19:54;;;;;;;8.93;5.53;;;23.40;99.90;;;;;;5091039;28;20398;-75
2021/06/15 06:22:22;;;;;;;6.60;5.23;;;23.80;99.90;;;;;;5091216;28;20181;-74
2021/06/15 06:24:48;;;;;;;7.13;5.30;;;23.80;99.90;;;;;;5091290;28;20589;-75
2021/06/15 06:27:14;;;;;;;6.57;5.60;;;23.90;99.90;;;;;;5091221;28;20865;-74
2021/06/15 06:29:39;;;;;;;8.67;4.70;;;23.80;99.90;;;;;;5091150;28;20396;-74
2021/06/15 06:32:05;;;;;;;7.40;5.47;;;23.60;99.90;;;;;;5091874;28;20181;-75
2021/06/15 06:34:31;;;;;;;7.80;5.50;;;23.90;99.90;;;;;;5095386;28;20167;-75
2021/06/15 06:36:56;;;;;;;10.93;6.40;;;24.10;99.90;;;;;;5095144;28;20480;-74
2021/06/15 06:39:22;;;;;;;9.50;5.80;;;24.10;99.90;;;;;;5095080;28;20549;-75
2021/06/15 06:41:47;;;;;;;5.27;4.77;;;23.90;99.90;;;;;;5094709;28;20196;-75
2021/06/15 06:44:13;;;;;;;7.50;6.10;;;24.00;99.90;;;;;;5094818;28;20242;-75
2021/06/15 06:46:38;;;;;;;5.73;5.17;;;23.80;99.90;;;;;;5094756;28;20263;-75
2021/06/15 06:49:04;;;;;;;5.67;4.97;;;23.70;99.90;;;;;;5094619;28;20613;-75
2021/06/15 06:51:30;;;;;;;9.07;5.40;;;23.70;99.90;;;;;;5094315;28;20290;-74
2021/06/15 06:53:56;;;;;;;7.20;6.17;;;23.40;99.90;;;;;;5094579;28;20176;-75
2021/06/15 06:56:22;;;;;;;7.97;4.90;;;23.20;99.90;;;;;;5094349;28;20226;-75
2021/06/15 06:58:47;;;;;;;5.87;4.80;;;23.10;99.90;;;;;;5094485;28;20410;-75
2021/06/15 07:01:13;;;;;;;11.27;5.63;;;23.30;99.90;;;;;;5094221;28;20424;-74
2021/06/15 07:03:39;;;;;;;10.00;5.80;;;23.30;99.90;;;;;;5094773;28;20160;-75
2021/06/15 07:06:04;;;;;;;7.10;5.70;;;23.80;99.90;;;;;;5094151;28;20427;-74
2021/06/15 07:08:30;;;;;;;7.10;4.83;;;24.00;99.90;;;;;;5094368;28;20197;-75
2021/06/15 07:10:56;;;;;;;10.20;5.97;;;23.60;99.90;;;;;;5094161;28;20277;-74
2021/06/15 07:13:21;;;;;;;6.27;5.63;;;23.60;99.90;;;;;;5076545;28;20179;-74
2021/06/15 07:15:47;;;;;;;6.03;5.10;;;23.50;99.90;;;;;;5094132;28;20200;-74
2021/06/15 07:18:12;;;;;;;7.03;5.60;;;23.70;99.90;;;;;;5094037;28;20169;-75
2021/06/15 07:20:38;;;;;;;5.57;5.00;;;23.60;99.90;;;;;;5094219;28;20179;-75
2021/06/15 07:23:04;;;;;;;7.50;5.73;;;23.40;99.90;;;;;;5077079;28;20190;-76
2021/06/15 07:25:30;;;;;;;7.97;5.40;;;23.30;99.90;;;;;;5094970;28;20199;-76
2021/06/15 07:27:59;;;;;;;8.30;6.47;;;23.60;99.90;;;;;;5076670;28;20411;-75
2021/06/15 07:30:24;;;;;;;9.90;5.87;;;23.60;99.90;;;;;;5094613;28;20432;-75
2021/06/15 07:32:51;;;;;;;7.80;5.10;;;23.90;99.90;;;;;;5094395;28;20406;-74
2021/06/15 07:35:16;;;;;;;10.93;5.30;;;24.50;99.90;;;;;;5094501;28;20186;-74
2021/06/15 07:37:42;;;;;;;6.90;5.70;;;24.20;99.90;;;;;;5094236;28;20936;-74
2021/06/15 07:40:09;;;;;;;6.40;4.43;;;23.90;99.90;;;;;;5094621;28;20248;-75
2021/06/15 07:42:34;;;;;;;6.60;5.93;;;24.00;99.90;;;;;;5094383;28;20397;-74
2021/06/15 07:45:00;;;;;;;5.70;5.00;;;24.30;99.90;;;;;;5093613;28;20768;-74
2021/06/15 07:47:26;;;;;;;11.00;5.37;;;24.10;99.90;;;;;;5094115;28;20181;-74
2021/06/15 07:49:52;;;;;;;4.90;4.47;;;24.90;99.90;;;;;;5094213;28;20232;-74
2021/06/15 07:52:17;;;;;;;4.47;4.07;;;24.90;99.90;;;;;;5094323;28;20578;-75
2021/06/15 07:54:43;;;;;;;7.77;5.20;;;25.30;99.90;;;;;;5094917;28;20405;-75
2021/06/15 07:57:09;;;;;;;6.17;5.57;;;25.60;99.90;;;;;;5094432;28;20250;-74
2021/06/15 07:59:35;;;;;;;8.07;4.73;;;25.80;99.90;;;;;;5094153;28;20579;-74
2021/06/15 08:02:01;;;;;;;7.57;4.63;;;25.50;99.90;;;;;;5094411;28;20426;-75
2021/06/15 08:04:27;;;;;;;8.47;5.03;;;27.10;99.90;;;;;;5076013;28;20173;-74
2021/06/15 08:06:52;;;;;;;6.43;4.90;;;26.40;99.90;;;;;;5093779;28;20239;-75
2021/06/15 08:09:18;;;;;;;6.93;4.77;;;25.80;99.90;;;;;;5075800;28;20411;-74
2021/06/15 08:11:44;;;;;;;7.27;4.90;;;26.20;99.90;;;;;;5093793;28;20209;-75
2021/06/15 08:14:09;;;;;;;5.40;4.60;;;26.70;99.90;;;;;;5075785;28;20166;-75
2021/06/15 08:16:35;;;;;;;6.03;4.70;;;25.90;99.90;;;;;;5093393;28;20276;-75
2021/06/15 08:19:00;;;;;;;8.73;5.13;;;25.90;99.90;;;;;;5093589;28;20226;-74
2021/06/15 08:21:26;;;;;;;4.90;4.43;;;25.90;99.90;;;;;;5093520;28;20185;-75
2021/06/15 08:23:52;;;;;;;6.80;5.40;;;25.10;99.90;;;;;;5093712;28;20213;-75
2021/06/15 08:26:18;;;;;;;9.17;5.60;;;25.20;99.90;;;;;;5093381;28;20492;-75
2021/06/15 08:28:43;;;;;;;6.90;4.33;;;25.50;99.90;;;;;;5093378;28;20531;-75
2021/06/15 08:31:09;;;;;;;7.73;5.87;;;25.20;99.90;;;;;;5093746;28;20219;-75
2021/06/15 08:33:34;;;;;;;5.23;4.73;;;25.20;99.90;;;;;;5094243;28;20171;-76
2021/06/15 08:36:00;;;;;;;8.07;5.03;;;25.50;99.90;;;;;;5093979;28;20221;-75
2021/06/15 08:38:25;;;;;;;7.73;6.13;;;25.20;99.90;;;;;;5094962;28;20179;-75
2021/06/15 08:40:52;;;;;;;5.00;4.43;;;24.30;99.90;;;;;;5094403;28;20186;-74
2021/06/15 08:43:21;;;;;;;9.13;5.50;;;24.60;99.90;;;;;;5094366;28;20174;-75
2021/06/15 08:45:47;;;;;;;7.47;4.80;;;24.90;99.90;;;;;;5093650;28;20408;-75
2021/06/15 08:48:13;;;;;;;5.03;4.50;;;24.70;99.90;;;;;;5075339;28;20410;-74
2021/06/15 08:50:40;;;;;;;6.90;4.33;;;24.60;99.90;;;;;;5093998;28;20196;-74
2021/06/15 08:53:07;;;;;;;6.13;4.90;;;24.50;99.90;;;;;;5093260;28;20903;-75
2021/06/15 08:55:34;;;;;;;6.30;4.50;;;24.40;99.90;;;;;;5091991;28;20447;-74
2021/06/15 08:58:22;;;;;;;5.40;3.87;;;24.70;99.90;;;;;;5074609;28;20457;-75
2021/06/15 09:00:48;;;;;;;7.10;4.37;;;25.20;99.90;;;;;;5092739;28;20789;-74
2021/06/15 09:03:14;;;;;;;4.70;3.70;;;25.20;99.90;;;;;;5093004;28;20402;-74
2021/06/15 09:05:41;;;;;;;4.63;4.17;;;25.50;99.90;;;;;;5092765;28;20187;-75
2021/06/15 09:08:14;;;;;;;4.57;3.50;;;25.80;99.90;;;;;;5092926;28;20829;-76
2021/06/15 09:10:45;;;;;;;9.20;3.93;;;25.70;99.90;;;;;;5092685;28;20429;-75
2021/06/15 09:13:31;;;;;;;5.60;4.07;;;26.50;99.90;;;;;;5092723;28;20415;-75
2021/06/15 09:15:57;;;;;;;5.07;4.50;;;26.40;99.90;;;;;;5093092;28;20450;-75
2021/06/15 09:18:30;;;;;;;4.87;4.47;;;25.80;99.90;;;;;;5093056;28;20923;-74
2021/06/15 09:21:05;;;;;;;7.70;4.70;;;25.80;99.90;;;;;;5092673;28;20426;-75
2021/06/15 09:23:32;;;;;;;5.13;4.17;;;26.10;99.90;;;;;;5092811;28;20450;-75
2021/06/15 09:25:58;;;;;;;4.70;4.20;;;25.20;99.90;;;;;;5092910;28;20457;-74
2021/06/15 09:28:23;;;;;;;4.43;4.00;;;25.10;99.90;;;;;;5092186;28;20507;-74
2021/06/15 09:31:02;;;;;;;4.13;3.83;;;24.90;99.90;;;;;;5092422;28;20194;-75
2021/06/15 09:33:43;;;;;;;5.27;4.03;;;25.10;99.90;;;;;;5092624;28;20294;-75
2021/06/15 09:36:14;;;;;;;4.93;3.83;;;25.20;99.90;;;;;;5092433;28;20458;-75
2021/06/15 09:38:58;;;;;;;4.63;4.00;;;25.20;99.90;;;;;;5074230;28;20465;-74
2021/06/15 09:41:42;;;;;;;7.27;4.40;;;24.70;99.90;;;;;;5092752;28;20512;-75
2021/06/15 09:44:22;;;;;;;4.30;3.63;;;24.80;99.90;;;;;;5092449;28;20487;-75
2021/06/15 09:46:50;;;;;;;5.27;4.30;;;24.60;99.90;;;;;;5092412;28;20407;-75
2021/06/15 09:49:38;;;;;;;5.77;4.50;;;24.30;99.90;;;;;;5074332;28;20411;-74
2021/06/15 09:52:16;;;;;;;4.70;4.30;;;24.50;99.90;;;;;;5092492;28;20835;-75
2021/06/15 09:54:43;;;;;;;4.97;4.60;;;24.20;99.90;;;;;;5092339;28;20403;-74
2021/06/15 09:57:10;;;;;;;9.20;4.40;;;24.30;99.90;;;;;;5091704;28;20454;-75
2021/06/15 09:59:36;;;;;;;5.33;4.20;;;24.50;99.90;;;;;;5091939;28;20399;-74
2021/06/15 10:02:03;;;;;;;7.20;4.10;;;24.70;99.90;;;;;;5092452;28;20427;-75
2021/06/15 10:04:28;;;;;;;6.40;4.73;;;24.80;99.90;;;;;;5094225;28;20409;-75
2021/06/15 10:06:56;;;;;;;6.73;4.57;;;24.90;99.90;;;;;;5093622;28;21034;-74
2021/06/15 10:09:30;;;;;;;6.00;4.47;;;24.80;99.90;;;;;;5094369;28;20634;-74
2021/06/15 10:11:58;;;;;;;5.63;4.87;;;24.80;99.90;;;;;;5091908;28;20449;-74
2021/06/15 10:14:25;;;;;;;6.60;5.10;;;24.60;99.90;;;;;;5091906;28;20407;-74
2021/06/15 10:16:51;;;;;;;10.20;5.07;;;24.60;99.90;;;;;;5093063;28;20514;-75
2021/06/15 10:19:16;;;;;;;5.87;5.30;;;24.30;99.90;;;;;;5095378;28;20442;-74
2021/06/15 10:21:42;;;;;;;6.20;5.60;;;24.30;99.90;;;;;;5091651;28;20422;-73
2021/06/15 10:24:08;;;;;;;7.33;5.57;;;24.20;99.90;;;;;;5091707;28;20186;-75
2021/06/15 10:26:34;;;;;;;8.73;4.57;;;24.30;99.90;;;;;;5091560;28;20173;-74
2021/06/15 10:29:01;;;;;;;7.33;5.10;;;24.50;99.90;;;;;;5091818;28;20863;-74
2021/06/15 10:31:32;;;;;;;7.40;5.40;;;24.20;99.90;;;;;;5091377;28;20442;-74
2021/06/15 10:33:58;;;;;;;5.60;5.10;;;24.20;99.90;;;;;;5091583;28;20852;-73
2021/06/15 10:36:37;;;;;;;7.57;5.23;;;24.50;99.90;;;;;;5091317;28;20545;-74
2021/06/15 10:39:04;;;;;;;6.30;4.77;;;24.30;99.90;;;;;;5091534;28;20438;-74
2021/06/15 10:41:30;;;;;;;5.53;5.03;;;23.70;99.90;;;;;;5091406;28;20798;-73
2021/06/15 10:43:58;;;;;;;5.33;4.83;;;24.10;99.90;;;;;;5091492;28;20455;-74
2021/06/15 10:46:28;;;;;;;5.30;4.33;;;23.90;99.90;;;;;;5091279;28;20186;-73
2021/06/15 10:49:02;;;;;;;6.10;5.07;;;23.90;99.90;;;;;;5091422;28;20829;-73
2021/06/15 10:51:36;;;;;;;7.00;5.70;;;23.80;99.90;;;;;;5073732;28;20442;-73
2021/06/15 10:54:25;;;;;;;6.17;5.57;;;23.80;99.90;;;;;;5091593;28;20412;-73
2021/06/15 10:57:16;;;;;;;6.80;5.57;;;24.10;99.90;;;;;;5091185;28;20548;-73
2021/06/15 11:00:00;;;;;;;6.00;5.40;;;24.00;99.90;;;;;;5091719;28;20942;-74
2021/06/15 11:02:30;;;;;;;7.17;6.47;;;24.30;99.90;;;;;;5091323;28;20493;-74
2021/06/15 11:04:55;;;;;;;5.73;5.23;;;24.00;99.90;;;;;;5073410;28;20443;-73
2021/06/15 11:07:35;;;;;;;6.57;5.50;;;24.30;99.90;;;;;;5091376;28;20406;-75
2021/06/15 11:10:03;;;;;;;6.73;5.50;;;24.40;99.90;;;;;;5091233;28;20667;-75
2021/06/15 11:12:28;;;;;;;8.83;6.43;;;24.90;99.90;;;;;;5091276;28;20919;-74
2021/06/15 11:15:21;;;;;;;6.10;5.60;;;24.50;99.90;;;;;;5091170;28;20411;-74
2021/06/15 11:17:49;;;;;;;8.10;6.47;;;24.30;99.90;;;;;;5091172;28;20169;-74
2021/06/15 11:20:39;;;;;;;5.93;5.37;;;24.20;99.90;;;;;;5093649;28;20434;-75
2021/06/15 11:23:15;;;;;;;5.60;5.10;;;24.10;99.90;;;;;;5094959;28;20488;-77
2021/06/15 11:25:45;;;;;;;6.47;5.87;;;24.10;99.90;;;;;;5094856;28;20435;-74
2021/06/15 11:28:46;;;;;;;12.60;6.33;;;24.00;99.90;;;;;;5094671;28;20409;-74
2021/06/15 11:31:18;;;;;;;11.00;4.70;;;23.90;99.90;;;;;;5094707;28;20927;-74
2021/06/15 11:33:58;;;;;;;9.40;5.70;;;24.10;99.90;;;;;;5094522;28;20401;-74
2021/06/15 11:36:40;;;;;;;6.13;5.60;;;24.00;99.90;;;;;;5094166;28;20457;-74
2021/06/15 11:39:24;;;;;;;8.43;6.50;;;23.80;99.90;;;;;;5094178;28;20460;-75
2021/06/15 11:42:17;;;;;;;8.47;5.53;;;24.10;99.90;;;;;;5094152;28;20430;-74
2021/06/15 11:45:02;;;;;;;5.77;5.23;;;24.10;99.90;;;;;;5094456;28;20394;-74
2021/06/15 11:47:47;;;;;;;5.97;5.30;;;23.90;99.90;;;;;;5093969;28;20427;-75
2021/06/15 11:50:16;;;;;;;6.70;6.00;;;23.60;99.90;;;;;;5094257;28;20770;-74
2021/06/15 11:52:44;;;;;;;7.37;6.03;;;23.40;99.90;;;;;;5094134;28;20394;-73
2021/06/15 11:55:11;;;;;;;10.93;6.30;;;23.40;99.90;;;;;;5095044;28;20894;-76
2021/06/15 11:57:37;;;;;;;7.23;5.83;;;23.40;99.90;;;;;;5094008;28;20742;-74
2021/06/15 12:00:09;;;;;;;5.90;5.33;;;23.30;99.90;;;;;;5093927;28;20412;-74
2021/06/15 12:02:35;;;;;;;6.33;5.70;;;23.80;99.90;;;;;;5093859;28;20484;-72
2021/06/15 12:05:03;;;;;;;9.17;5.30;;;24.10;99.90;;;;;;5093947;28;20818;-74
2021/06/15 12:07:29;;;;;;;6.47;5.73;;;24.10;99.90;;;;;;5094017;28;20182;-75
2021/06/15 12:10:14;;;;;;;9.83;5.70;;;24.10;99.90;;;;;;5093716;28;20394;-75
2021/06/15 12:13:03;;;;;;;6.57;5.57;;;24.20;99.90;;;;;;5093765;28;20560;-72
2021/06/15 12:15:52;;;;;;;6.77;6.13;;;24.50;99.90;;;;;;5094254;28;20460;-74
2021/06/15 12:18:23;;;;;;;8.10;5.53;;;24.40;99.90;;;;;;5096534;28;20412;-77
2021/06/15 12:20:56;;;;;;;6.53;5.90;;;24.40;99.90;;;;;;5095980;28;20426;-76
2021/06/15 12:23:36;;;;;;;7.67;6.40;;;24.10;99.90;;;;;;5077631;28;20461;-75
2021/06/15 12:26:06;;;;;;;6.57;5.90;;;24.70;99.90;;;;;;5077782;28;20505;-75
2021/06/15 12:28:32;;;;;;;7.03;5.50;;;24.60;99.90;;;;;;5095669;28;20407;-76
2021/06/15 12:31:14;;;;;;;5.70;5.10;;;24.60;99.90;;;;;;5095938;28;20521;-75
2021/06/15 12:33:41;;;;;;;5.27;4.73;;;24.70;99.90;;;;;;5098755;28;20930;-76
2021/06/15 12:36:10;;;;;;;14.10;6.33;;;25.00;99.90;;;;;;5100923;28;20452;-76
2021/06/15 12:38:37;;;;;;;5.00;4.50;;;24.30;99.90;;;;;;5102797;28;20394;-75
2021/06/15 12:41:06;;;;;;;5.97;5.20;;;25.00;99.90;;;;;;5108241;28;20771;-73
2021/06/15 12:43:33;;;;;;;5.67;5.17;;;24.90;99.90;;;;;;5087896;28;20458;-75
2021/06/15 12:46:13;;;;;;;5.50;5.00;;;24.90;99.90;;;;;;5106058;28;20452;-74
2021/06/15 12:48:51;;;;;;;7.40;6.40;;;24.60;99.90;;;;;;5108065;28;20412;-75
2021/06/15 12:51:18;;;;;;;9.73;6.37;;;25.00;99.90;;;;;;5081397;28;20573;-75
2021/06/15 12:53:45;;;;;;;10.90;5.50;;;24.50;99.90;;;;;;5096051;28;21025;-75
2021/06/15 12:56:19;;;;;;;5.23;4.73;;;24.10;99.90;;;;;;5095266;28;20484;-76
2021/06/15 12:58:45;;;;;;;5.83;4.97;;;24.30;99.90;;;;;;5096433;28;20433;-76
2021/06/15 13:01:16;;;;;;;6.30;5.70;;;24.60;99.90;;;;;;5062615;28;20957;-75
2021/06/15 13:03:43;;;;;;;8.07;4.70;;;24.20;99.90;;;;;;5079032;28;20445;-76